sensor_id;sensor_type;location;lat;lon;timestamp;P1;durP1;ratioP1;P2;durP2;ratioP2
26620;SDS011;14253;44.840;10.444;2022-07-22T00:01:21;8.38;;;3.42;;
26620;SDS011;14253;44.840;10.444;2022-07-22T00:03:47;6.85;;;3.35;;
26620;SDS011;14253;44.840;10.444;2022-07-22T00:06:13;9.82;;;3.72;;
26620;SDS011;14253;44.840;10.444;2022-07-22T00:08:39;21.77;;;3.78;;
26620;SDS011;14253;44.840;10.444;2022-07-22T00:11:05;13.18;;;3.58;;
26620;SDS011;14253;44.840;10.444;2022-07-22T00:13:31;11.98;;;4.15;;
26620;SDS011;14253;44.840;10.444;2022-07-22T00:15:58;12.77;;;3.70;;
26620;SDS011;14253;44.840;10.444;2022-07-22T00:18:24;12.07;;;4.03;;
26620;SDS011;14253;44.840;10.444;2022-07-22T00:20:50;8.07;;;3.90;;
26620;SDS011;14253;44.840;10.444;2022-07-22T00:23:16;14.02;;;4.57;;
26620;SDS011;14253;44.840;10.444;2022-07-22T00:25:42;8.93;;;4.32;;
26620;SDS011;14253;44.840;10.444;2022-07-22T00:28:08;15.77;;;4.10;;
26620;SDS011;14253;44.840;10.444;2022-07-22T00:30:34;13.43;;;3.55;;
26620;SDS011;14253;44.840;10.444;2022-07-22T00:33:00;8.70;;;3.85;;
26620;SDS011;14253;44.840;10.444;2022-07-22T00:35:26;10.50;;;4.50;;
26620;SDS011;14253;44.840;10.444;2022-07-22T00:37:52;13.00;;;4.88;;
26620;SDS011;14253;44.840;10.444;2022-07-22T00:40:18;8.98;;;4.78;;
26620;SDS011;14253;44.840;10.444;2022-07-22T00:42:44;14.43;;;5.18;;
26620;SDS011;14253;44.840;10.444;2022-07-22T00:45:10;12.15;;;4.82;;
26620;SDS011;14253;44.840;10.444;2022-07-22T00:47:36;11.32;;;4.35;;
26620;SDS011;14253;44.840;10.444;2022-07-22T00:50:03;9.57;;;4.65;;
26620;SDS011;14253;44.840;10.444;2022-07-22T00:52:30;11.55;;;4.65;;
26620;SDS011;14253;44.840;10.444;2022-07-22T00:54:58;9.68;;;4.47;;
26620;SDS011;14253;44.840;10.444;2022-07-22T00:57:25;10.38;;;5.00;;
26620;SDS011;14253;44.840;10.444;2022-07-22T00:59:52;8.48;;;3.97;;
26620;SDS011;14253;44.840;10.444;2022-07-22T01:02:18;7.53;;;4.20;;
26620;SDS011;14253;44.840;10.444;2022-07-22T01:04:44;6.55;;;3.63;;
26620;SDS011;14253;44.840;10.444;2022-07-22T01:07:12;12.52;;;4.15;;
26620;SDS011;14253;44.840;10.444;2022-07-22T01:09:42;12.23;;;4.80;;
26620;SDS011;14253;44.840;10.444;2022-07-22T01:12:11;7.88;;;3.70;;
26620;SDS011;14253;44.840;10.444;2022-07-22T01:14:37;9.32;;;4.43;;
26620;SDS011;14253;44.840;10.444;2022-07-22T01:17:05;12.07;;;4.35;;
26620;SDS011;14253;44.840;10.444;2022-07-22T01:19:31;7.35;;;3.70;;
26620;SDS011;14253;44.840;10.444;2022-07-22T01:21:57;10.20;;;3.88;;
26620;SDS011;14253;44.840;10.444;2022-07-22T01:24:23;8.55;;;4.15;;
26620;SDS011;14253;44.840;10.444;2022-07-22T01:26:49;7.30;;;3.80;;
26620;SDS011;14253;44.840;10.444;2022-07-22T01:29:15;10.75;;;3.80;;
26620;SDS011;14253;44.840;10.444;2022-07-22T01:31:41;11.77;;;4.47;;
26620;SDS011;14253;44.840;10.444;2022-07-22T01:34:07;13.95;;;4.78;;
26620;SDS011;14253;44.840;10.444;2022-07-22T01:36:35;9.18;;;4.10;;
26620;SDS011;14253;44.840;10.444;2022-07-22T01:39:02;7.22;;;5.10;;
26620;SDS011;14253;44.840;10.444;2022-07-22T01:41:28;6.15;;;4.45;;
26620;SDS011;14253;44.840;10.444;2022-07-22T01:43:54;10.45;;;4.68;;
26620;SDS011;14253;44.840;10.444;2022-07-22T01:46:20;10.60;;;3.88;;
26620;SDS011;14253;44.840;10.444;2022-07-22T01:48:49;9.20;;;4.47;;
26620;SDS011;14253;44.840;10.444;2022-07-22T01:51:17;7.78;;;4.43;;
26620;SDS011;14253;44.840;10.444;2022-07-22T01:53:43;9.32;;;5.07;;
26620;SDS011;14253;44.840;10.444;2022-07-22T01:56:09;10.05;;;4.40;;
26620;SDS011;14253;44.840;10.444;2022-07-22T01:58:44;11.25;;;5.05;;
26620;SDS011;14253;44.840;10.444;2022-07-22T02:01:10;10.70;;;5.22;;
26620;SDS011;14253;44.840;10.444;2022-07-22T02:03:36;11.40;;;5.72;;
26620;SDS011;14253;44.840;10.444;2022-07-22T02:06:03;14.48;;;4.90;;
26620;SDS011;14253;44.840;10.444;2022-07-22T02:08:30;13.48;;;6.40;;
26620;SDS011;14253;44.840;10.444;2022-07-22T02:11:11;13.40;;;5.55;;
26620;SDS011;14253;44.840;10.444;2022-07-22T02:13:58;16.83;;;6.43;;
26620;SDS011;14253;44.840;10.444;2022-07-22T02:16:25;6.40;;;5.50;;
26620;SDS011;14253;44.840;10.444;2022-07-22T02:18:52;13.98;;;6.10;;
26620;SDS011;14253;44.840;10.444;2022-07-22T02:21:20;6.95;;;5.43;;
26620;SDS011;14253;44.840;10.444;2022-07-22T02:23:52;9.48;;;6.53;;
26620;SDS011;14253;44.840;10.444;2022-07-22T02:26:18;9.65;;;5.90;;
26620;SDS011;14253;44.840;10.444;2022-07-22T02:28:44;10.98;;;6.15;;
26620;SDS011;14253;44.840;10.444;2022-07-22T02:31:10;10.50;;;5.85;;
26620;SDS011;14253;44.840;10.444;2022-07-22T02:33:37;11.45;;;7.15;;
26620;SDS011;14253;44.840;10.444;2022-07-22T02:36:04;10.85;;;5.60;;
26620;SDS011;14253;44.840;10.444;2022-07-22T02:38:32;7.40;;;5.25;;
26620;SDS011;14253;44.840;10.444;2022-07-22T02:40:59;10.43;;;6.60;;
26620;SDS011;14253;44.840;10.444;2022-07-22T02:43:25;9.25;;;5.93;;
26620;SDS011;14253;44.840;10.444;2022-07-22T02:45:52;8.93;;;7.05;;
26620;SDS011;14253;44.840;10.444;2022-07-22T02:48:18;12.05;;;6.03;;
26620;SDS011;14253;44.840;10.444;2022-07-22T02:50:47;10.77;;;6.60;;
26620;SDS011;14253;44.840;10.444;2022-07-22T02:53:19;15.63;;;6.97;;
26620;SDS011;14253;44.840;10.444;2022-07-22T02:55:46;9.07;;;7.00;;
26620;SDS011;14253;44.840;10.444;2022-07-22T02:58:12;13.40;;;6.45;;
26620;SDS011;14253;44.840;10.444;2022-07-22T03:00:41;10.50;;;6.05;;
26620;SDS011;14253;44.840;10.444;2022-07-22T03:03:07;11.02;;;6.43;;
26620;SDS011;14253;44.840;10.444;2022-07-22T03:05:33;11.88;;;6.65;;
26620;SDS011;14253;44.840;10.444;2022-07-22T03:08:22;11.80;;;7.68;;
26620;SDS011;14253;44.840;10.444;2022-07-22T03:10:49;9.93;;;6.32;;
26620;SDS011;14253;44.840;10.444;2022-07-22T03:13:15;7.63;;;6.03;;
26620;SDS011;14253;44.840;10.444;2022-07-22T03:15:41;12.15;;;7.10;;
26620;SDS011;14253;44.840;10.444;2022-07-22T03:18:06;10.45;;;8.35;;
26620;SDS011;14253;44.840;10.444;2022-07-22T03:20:32;12.88;;;8.38;;
26620;SDS011;14253;44.840;10.444;2022-07-22T03:22:59;14.63;;;9.18;;
26620;SDS011;14253;44.840;10.444;2022-07-22T03:25:26;11.43;;;7.28;;
26620;SDS011;14253;44.840;10.444;2022-07-22T03:27:52;14.32;;;7.43;;
26620;SDS011;14253;44.840;10.444;2022-07-22T03:30:18;16.05;;;8.68;;
26620;SDS011;14253;44.840;10.444;2022-07-22T03:32:44;12.85;;;8.35;;
26620;SDS011;14253;44.840;10.444;2022-07-22T03:35:13;12.73;;;7.18;;
26620;SDS011;14253;44.840;10.444;2022-07-22T03:37:42;9.10;;;6.90;;
26620;SDS011;14253;44.840;10.444;2022-07-22T03:40:09;12.10;;;7.55;;
26620;SDS011;14253;44.840;10.444;2022-07-22T03:42:37;11.07;;;6.55;;
26620;SDS011;14253;44.840;10.444;2022-07-22T03:45:03;9.27;;;7.05;;
26620;SDS011;14253;44.840;10.444;2022-07-22T03:47:34;13.07;;;7.18;;
26620;SDS011;14253;44.840;10.444;2022-07-22T03:50:00;11.88;;;7.82;;
26620;SDS011;14253;44.840;10.444;2022-07-22T03:52:28;11.88;;;7.38;;
26620;SDS011;14253;44.840;10.444;2022-07-22T03:54:55;15.18;;;7.90;;
26620;SDS011;14253;44.840;10.444;2022-07-22T03:57:21;12.95;;;6.63;;
26620;SDS011;14253;44.840;10.444;2022-07-22T03:59:57;12.18;;;7.30;;
26620;SDS011;14253;44.840;10.444;2022-07-22T04:02:24;13.43;;;7.03;;
26620;SDS011;14253;44.840;10.444;2022-07-22T04:04:50;11.73;;;7.53;;
26620;SDS011;14253;44.840;10.444;2022-07-22T04:07:17;13.93;;;7.22;;
26620;SDS011;14253;44.840;10.444;2022-07-22T04:09:43;14.82;;;8.43;;
26620;SDS011;14253;44.840;10.444;2022-07-22T04:12:09;15.10;;;8.52;;
26620;SDS011;14253;44.840;10.444;2022-07-22T04:14:51;11.70;;;7.95;;
26620;SDS011;14253;44.840;10.444;2022-07-22T04:17:17;8.88;;;7.82;;
26620;SDS011;14253;44.840;10.444;2022-07-22T04:19:43;11.57;;;7.80;;
26620;SDS011;14253;44.840;10.444;2022-07-22T04:22:20;9.90;;;8.13;;
26620;SDS011;14253;44.840;10.444;2022-07-22T04:24:46;12.85;;;7.43;;
26620;SDS011;14253;44.840;10.444;2022-07-22T04:27:12;9.93;;;7.35;;
26620;SDS011;14253;44.840;10.444;2022-07-22T04:29:38;9.50;;;8.00;;
26620;SDS011;14253;44.840;10.444;2022-07-22T04:32:04;10.40;;;7.65;;
26620;SDS011;14253;44.840;10.444;2022-07-22T04:34:31;13.35;;;7.82;;
26620;SDS011;14253;44.840;10.444;2022-07-22T04:36:58;16.25;;;9.02;;
26620;SDS011;14253;44.840;10.444;2022-07-22T04:39:26;12.68;;;7.85;;
26620;SDS011;14253;44.840;10.444;2022-07-22T04:41:55;10.95;;;7.68;;
26620;SDS011;14253;44.840;10.444;2022-07-22T04:44:22;18.83;;;8.90;;
26620;SDS011;14253;44.840;10.444;2022-07-22T04:46:48;21.23;;;9.45;;
26620;SDS011;14253;44.840;10.444;2022-07-22T04:49:14;15.15;;;8.85;;
26620;SDS011;14253;44.840;10.444;2022-07-22T04:51:40;14.80;;;8.07;;
26620;SDS011;14253;44.840;10.444;2022-07-22T04:54:11;13.43;;;8.17;;
26620;SDS011;14253;44.840;10.444;2022-07-22T04:56:40;13.38;;;7.97;;
26620;SDS011;14253;44.840;10.444;2022-07-22T04:59:07;9.25;;;6.85;;
26620;SDS011;14253;44.840;10.444;2022-07-22T05:01:34;13.48;;;8.73;;
26620;SDS011;14253;44.840;10.444;2022-07-22T05:04:01;11.45;;;7.97;;
26620;SDS011;14253;44.840;10.444;2022-07-22T05:06:28;12.70;;;8.30;;
26620;SDS011;14253;44.840;10.444;2022-07-22T05:08:55;14.27;;;7.80;;
26620;SDS011;14253;44.840;10.444;2022-07-22T05:11:21;13.40;;;8.13;;
26620;SDS011;14253;44.840;10.444;2022-07-22T05:13:48;11.77;;;7.53;;
26620;SDS011;14253;44.840;10.444;2022-07-22T05:16:14;12.35;;;7.32;;
26620;SDS011;14253;44.840;10.444;2022-07-22T05:18:40;10.32;;;7.43;;
26620;SDS011;14253;44.840;10.444;2022-07-22T05:21:09;9.80;;;6.70;;
26620;SDS011;14253;44.840;10.444;2022-07-22T05:23:35;11.00;;;6.57;;
26620;SDS011;14253;44.840;10.444;2022-07-22T05:26:01;11.00;;;6.22;;
26620;SDS011;14253;44.840;10.444;2022-07-22T05:28:29;12.02;;;6.70;;
26620;SDS011;14253;44.840;10.444;2022-07-22T05:30:56;13.80;;;6.88;;
26620;SDS011;14253;44.840;10.444;2022-07-22T05:33:24;9.60;;;6.80;;
26620;SDS011;14253;44.840;10.444;2022-07-22T05:38:38;11.68;;;6.38;;
26620;SDS011;14253;44.840;10.444;2022-07-22T05:41:06;14.48;;;6.20;;
26620;SDS011;14253;44.840;10.444;2022-07-22T05:43:32;22.77;;;6.43;;
26620;SDS011;14253;44.840;10.444;2022-07-22T05:46:00;16.75;;;7.60;;
26620;SDS011;14253;44.840;10.444;2022-07-22T05:48:26;18.85;;;7.57;;
26620;SDS011;14253;44.840;10.444;2022-07-22T05:50:52;25.23;;;7.55;;
26620;SDS011;14253;44.840;10.444;2022-07-22T05:53:18;16.92;;;8.65;;
26620;SDS011;14253;44.840;10.444;2022-07-22T05:55:44;23.40;;;8.27;;
26620;SDS011;14253;44.840;10.444;2022-07-22T05:58:12;19.90;;;8.45;;
26620;SDS011;14253;44.840;10.444;2022-07-22T06:00:38;24.20;;;8.32;;
26620;SDS011;14253;44.840;10.444;2022-07-22T06:03:05;20.10;;;7.60;;
26620;SDS011;14253;44.840;10.444;2022-07-22T06:05:33;15.18;;;7.78;;
26620;SDS011;14253;44.840;10.444;2022-07-22T06:08:02;18.00;;;8.77;;
26620;SDS011;14253;44.840;10.444;2022-07-22T06:10:37;13.40;;;9.98;;
26620;SDS011;14253;44.840;10.444;2022-07-22T06:13:03;24.63;;;9.40;;
26620;SDS011;14253;44.840;10.444;2022-07-22T06:15:30;17.60;;;10.38;;
26620;SDS011;14253;44.840;10.444;2022-07-22T06:17:56;18.50;;;10.10;;
26620;SDS011;14253;44.840;10.444;2022-07-22T06:20:22;23.38;;;11.02;;
26620;SDS011;14253;44.840;10.444;2022-07-22T06:22:48;17.75;;;11.30;;
26620;SDS011;14253;44.840;10.444;2022-07-22T06:25:15;18.15;;;11.38;;
26620;SDS011;14253;44.840;10.444;2022-07-22T06:27:41;17.55;;;10.32;;
26620;SDS011;14253;44.840;10.444;2022-07-22T06:30:08;17.80;;;11.60;;
26620;SDS011;14253;44.840;10.444;2022-07-22T06:32:34;17.50;;;11.43;;
26620;SDS011;14253;44.840;10.444;2022-07-22T06:35:01;23.10;;;11.45;;
26620;SDS011;14253;44.840;10.444;2022-07-22T06:37:27;15.00;;;10.10;;
26620;SDS011;14253;44.840;10.444;2022-07-22T06:39:53;29.40;;;11.05;;
26620;SDS011;14253;44.840;10.444;2022-07-22T06:42:24;14.13;;;9.33;;
26620;SDS011;14253;44.840;10.444;2022-07-22T06:45:08;15.10;;;10.57;;
26620;SDS011;14253;44.840;10.444;2022-07-22T06:47:41;16.15;;;8.82;;
26620;SDS011;14253;44.840;10.444;2022-07-22T06:50:09;13.68;;;8.77;;
26620;SDS011;14253;44.840;10.444;2022-07-22T06:52:39;19.42;;;8.82;;
26620;SDS011;14253;44.840;10.444;2022-07-22T06:55:07;19.80;;;9.75;;
26620;SDS011;14253;44.840;10.444;2022-07-22T06:57:37;16.02;;;8.68;;
26620;SDS011;14253;44.840;10.444;2022-07-22T07:00:04;17.65;;;10.65;;
26620;SDS011;14253;44.840;10.444;2022-07-22T07:02:39;18.40;;;10.00;;
26620;SDS011;14253;44.840;10.444;2022-07-22T07:05:06;14.23;;;8.68;;
26620;SDS011;14253;44.840;10.444;2022-07-22T07:07:32;13.25;;;8.38;;
26620;SDS011;14253;44.840;10.444;2022-07-22T07:10:00;21.05;;;9.32;;
26620;SDS011;14253;44.840;10.444;2022-07-22T07:12:42;15.63;;;9.57;;
26620;SDS011;14253;44.840;10.444;2022-07-22T07:15:08;12.57;;;9.00;;
26620;SDS011;14253;44.840;10.444;2022-07-22T07:17:35;14.25;;;9.55;;
26620;SDS011;14253;44.840;10.444;2022-07-22T07:20:04;15.75;;;8.70;;
26620;SDS011;14253;44.840;10.444;2022-07-22T07:22:32;11.85;;;6.68;;
26620;SDS011;14253;44.840;10.444;2022-07-22T07:25:05;15.35;;;7.72;;
26620;SDS011;14253;44.840;10.444;2022-07-22T07:27:33;10.75;;;7.25;;
26620;SDS011;14253;44.840;10.444;2022-07-22T07:30:00;13.00;;;5.50;;
26620;SDS011;14253;44.840;10.444;2022-07-22T07:32:28;9.10;;;6.75;;
26620;SDS011;14253;44.840;10.444;2022-07-22T07:34:54;11.63;;;5.85;;
26620;SDS011;14253;44.840;10.444;2022-07-22T07:37:20;10.77;;;7.05;;
26620;SDS011;14253;44.840;10.444;2022-07-22T07:39:46;15.85;;;7.38;;
26620;SDS011;14253;44.840;10.444;2022-07-22T07:42:13;17.08;;;7.28;;
26620;SDS011;14253;44.840;10.444;2022-07-22T07:44:39;10.23;;;6.10;;
26620;SDS011;14253;44.840;10.444;2022-07-22T07:47:05;11.73;;;5.70;;
26620;SDS011;14253;44.840;10.444;2022-07-22T07:49:31;11.38;;;4.97;;
26620;SDS011;14253;44.840;10.444;2022-07-22T07:51:57;12.48;;;5.65;;
26620;SDS011;14253;44.840;10.444;2022-07-22T07:54:23;10.73;;;4.57;;
26620;SDS011;14253;44.840;10.444;2022-07-22T07:56:50;8.27;;;4.05;;
26620;SDS011;14253;44.840;10.444;2022-07-22T07:59:17;8.75;;;4.28;;
26620;SDS011;14253;44.840;10.444;2022-07-22T08:01:44;12.57;;;5.18;;
26620;SDS011;14253;44.840;10.444;2022-07-22T08:04:10;6.78;;;4.15;;
26620;SDS011;14253;44.840;10.444;2022-07-22T08:06:36;10.18;;;4.47;;
26620;SDS011;14253;44.840;10.444;2022-07-22T08:09:06;9.32;;;4.38;;
26620;SDS011;14253;44.840;10.444;2022-07-22T08:14:41;10.95;;;3.60;;
26620;SDS011;14253;44.840;10.444;2022-07-22T08:17:25;7.18;;;4.13;;
26620;SDS011;14253;44.840;10.444;2022-07-22T08:19:51;6.65;;;3.33;;
26620;SDS011;14253;44.840;10.444;2022-07-22T08:22:17;7.00;;;3.60;;
26620;SDS011;14253;44.840;10.444;2022-07-22T08:24:45;8.82;;;4.20;;
26620;SDS011;14253;44.840;10.444;2022-07-22T08:27:14;6.78;;;3.70;;
26620;SDS011;14253;44.840;10.444;2022-07-22T08:29:41;3.83;;;2.53;;
26620;SDS011;14253;44.840;10.444;2022-07-22T08:32:07;6.03;;;3.63;;
26620;SDS011;14253;44.840;10.444;2022-07-22T08:34:33;11.05;;;3.97;;
26620;SDS011;14253;44.840;10.444;2022-07-22T08:37:00;8.77;;;3.75;;
26620;SDS011;14253;44.840;10.444;2022-07-22T08:39:26;8.13;;;3.97;;
26620;SDS011;14253;44.840;10.444;2022-07-22T08:41:52;10.68;;;4.10;;
26620;SDS011;14253;44.840;10.444;2022-07-22T08:44:21;5.93;;;3.95;;
26620;SDS011;14253;44.840;10.444;2022-07-22T08:46:47;9.02;;;4.35;;
26620;SDS011;14253;44.840;10.444;2022-07-22T08:49:37;7.00;;;3.72;;
26620;SDS011;14253;44.840;10.444;2022-07-22T08:52:27;11.32;;;4.35;;
26620;SDS011;14253;44.840;10.444;2022-07-22T08:54:53;14.88;;;4.10;;
26620;SDS011;14253;44.840;10.444;2022-07-22T08:57:19;12.23;;;4.07;;
26620;SDS011;14253;44.840;10.444;2022-07-22T08:59:53;9.18;;;4.28;;
26620;SDS011;14253;44.840;10.444;2022-07-22T09:02:21;8.02;;;3.63;;
26620;SDS011;14253;44.840;10.444;2022-07-22T09:05:02;16.92;;;4.38;;
26620;SDS011;14253;44.840;10.444;2022-07-22T09:07:34;4.07;;;3.35;;
26620;SDS011;14253;44.840;10.444;2022-07-22T09:10:13;7.70;;;3.85;;
26620;SDS011;14253;44.840;10.444;2022-07-22T09:13:02;5.20;;;3.20;;
26620;SDS011;14253;44.840;10.444;2022-07-22T09:15:53;4.40;;;3.65;;
26620;SDS011;14253;44.840;10.444;2022-07-22T09:18:53;8.48;;;3.80;;
26620;SDS011;14253;44.840;10.444;2022-07-22T09:21:46;11.05;;;4.20;;
26620;SDS011;14253;44.840;10.444;2022-07-22T09:24:30;8.25;;;3.90;;
26620;SDS011;14253;44.840;10.444;2022-07-22T09:27:11;6.07;;;4.10;;
26620;SDS011;14253;44.840;10.444;2022-07-22T09:30:11;5.38;;;3.70;;
26620;SDS011;14253;44.840;10.444;2022-07-22T09:32:46;16.45;;;4.28;;
26620;SDS011;14253;44.840;10.444;2022-07-22T09:35:32;8.75;;;3.92;;
26620;SDS011;14253;44.840;10.444;2022-07-22T09:38:03;7.70;;;3.90;;
26620;SDS011;14253;44.840;10.444;2022-07-22T09:40:33;8.25;;;3.33;;
26620;SDS011;14253;44.840;10.444;2022-07-22T09:43:05;10.05;;;3.47;;
26620;SDS011;14253;44.840;10.444;2022-07-22T09:48:53;7.15;;;3.83;;
26620;SDS011;14253;44.840;10.444;2022-07-22T09:51:40;10.32;;;3.75;;
26620;SDS011;14253;44.840;10.444;2022-07-22T09:54:16;4.95;;;3.38;;
26620;SDS011;14253;44.840;10.444;2022-07-22T09:56:44;4.85;;;3.50;;
26620;SDS011;14253;44.840;10.444;2022-07-22T09:59:12;10.80;;;3.50;;
26620;SDS011;14253;44.840;10.444;2022-07-22T10:01:42;5.90;;;3.22;;
26620;SDS011;14253;44.840;10.444;2022-07-22T10:04:08;8.32;;;4.10;;
26620;SDS011;14253;44.840;10.444;2022-07-22T10:06:38;5.30;;;3.13;;
26620;SDS011;14253;44.840;10.444;2022-07-22T10:09:11;6.28;;;3.65;;
26620;SDS011;14253;44.840;10.444;2022-07-22T10:11:38;9.02;;;3.58;;
26620;SDS011;14253;44.840;10.444;2022-07-22T10:14:11;10.00;;;3.72;;
26620;SDS011;14253;44.840;10.444;2022-07-22T10:16:38;7.78;;;3.65;;
26620;SDS011;14253;44.840;10.444;2022-07-22T10:19:06;4.63;;;3.00;;
26620;SDS011;14253;44.840;10.444;2022-07-22T10:21:33;9.95;;;3.88;;
26620;SDS011;14253;44.840;10.444;2022-07-22T10:26:53;7.10;;;3.53;;
26620;SDS011;14253;44.840;10.444;2022-07-22T10:29:26;7.93;;;3.83;;
26620;SDS011;14253;44.840;10.444;2022-07-22T10:34:42;5.47;;;3.50;;
26620;SDS011;14253;44.840;10.444;2022-07-22T10:45:37;6.13;;;3.30;;
26620;SDS011;14253;44.840;10.444;2022-07-22T10:48:18;8.27;;;3.55;;
26620;SDS011;14253;44.840;10.444;2022-07-22T10:53:40;9.65;;;3.53;;
26620;SDS011;14253;44.840;10.444;2022-07-22T10:56:29;11.15;;;3.72;;
26620;SDS011;14253;44.840;10.444;2022-07-22T11:01:41;9.88;;;3.75;;
26620;SDS011;14253;44.840;10.444;2022-07-22T11:04:16;7.35;;;3.30;;
26620;SDS011;14253;44.840;10.444;2022-07-22T11:06:45;6.22;;;3.67;;
26620;SDS011;14253;44.840;10.444;2022-07-22T11:09:13;5.22;;;3.20;;
26620;SDS011;14253;44.840;10.444;2022-07-22T11:11:41;7.72;;;3.45;;
26620;SDS011;14253;44.840;10.444;2022-07-22T11:14:12;5.95;;;3.10;;
26620;SDS011;14253;44.840;10.444;2022-07-22T11:16:46;6.88;;;3.22;;
26620;SDS011;14253;44.840;10.444;2022-07-22T11:19:14;4.93;;;3.25;;
26620;SDS011;14253;44.840;10.444;2022-07-22T11:21:48;6.63;;;3.53;;
26620;SDS011;14253;44.840;10.444;2022-07-22T11:24:15;8.55;;;4.03;;
26620;SDS011;14253;44.840;10.444;2022-07-22T11:26:43;6.30;;;3.20;;
26620;SDS011;14253;44.840;10.444;2022-07-22T11:29:15;6.88;;;3.00;;
26620;SDS011;14253;44.840;10.444;2022-07-22T11:31:52;6.03;;;3.38;;
26620;SDS011;14253;44.840;10.444;2022-07-22T11:34:19;8.85;;;3.30;;
26620;SDS011;14253;44.840;10.444;2022-07-22T11:36:48;8.02;;;4.10;;
26620;SDS011;14253;44.840;10.444;2022-07-22T11:39:18;5.25;;;3.78;;
26620;SDS011;14253;44.840;10.444;2022-07-22T11:41:49;5.97;;;3.38;;
26620;SDS011;14253;44.840;10.444;2022-07-22T11:44:19;7.47;;;3.40;;
26620;SDS011;14253;44.840;10.444;2022-07-22T11:46:46;7.50;;;3.58;;
26620;SDS011;14253;44.840;10.444;2022-07-22T11:49:14;8.35;;;3.78;;
26620;SDS011;14253;44.840;10.444;2022-07-22T11:51:44;7.25;;;3.58;;
26620;SDS011;14253;44.840;10.444;2022-07-22T11:54:10;7.03;;;3.10;;
26620;SDS011;14253;44.840;10.444;2022-07-22T11:56:37;8.35;;;3.65;;
26620;SDS011;14253;44.840;10.444;2022-07-22T11:59:04;4.20;;;3.75;;
26620;SDS011;14253;44.840;10.444;2022-07-22T12:01:31;5.78;;;3.47;;
26620;SDS011;14253;44.840;10.444;2022-07-22T12:06:34;8.05;;;3.80;;
26620;SDS011;14253;44.840;10.444;2022-07-22T12:09:09;6.55;;;3.45;;
26620;SDS011;14253;44.840;10.444;2022-07-22T12:11:45;6.90;;;3.90;;
26620;SDS011;14253;44.840;10.444;2022-07-22T12:14:17;11.23;;;3.72;;
26620;SDS011;14253;44.840;10.444;2022-07-22T12:19:42;15.02;;;3.70;;
26620;SDS011;14253;44.840;10.444;2022-07-22T12:22:09;6.88;;;3.85;;
26620;SDS011;14253;44.840;10.444;2022-07-22T12:24:43;9.20;;;3.90;;
26620;SDS011;14253;44.840;10.444;2022-07-22T12:27:11;10.57;;;3.95;;
26620;SDS011;14253;44.840;10.444;2022-07-22T12:29:43;9.48;;;3.83;;
26620;SDS011;14253;44.840;10.444;2022-07-22T12:34:54;10.05;;;3.92;;
26620;SDS011;14253;44.840;10.444;2022-07-22T12:37:23;9.43;;;4.50;;
26620;SDS011;14253;44.840;10.444;2022-07-22T12:40:03;8.10;;;4.18;;
26620;SDS011;14253;44.840;10.444;2022-07-22T12:42:36;5.82;;;3.80;;
26620;SDS011;14253;44.840;10.444;2022-07-22T14:59:21;9.02;;;4.43;;
26620;SDS011;14253;44.840;10.444;2022-07-22T15:01:51;8.23;;;4.70;;
26620;SDS011;14253;44.840;10.444;2022-07-22T15:04:17;7.75;;;5.07;;
26620;SDS011;14253;44.840;10.444;2022-07-22T15:06:43;8.93;;;4.63;;
26620;SDS011;14253;44.840;10.444;2022-07-22T15:09:09;8.27;;;4.60;;
26620;SDS011;14253;44.840;10.444;2022-07-22T15:11:35;8.90;;;5.00;;
26620;SDS011;14253;44.840;10.444;2022-07-22T15:14:01;8.75;;;4.95;;
26620;SDS011;14253;44.840;10.444;2022-07-22T15:16:27;7.70;;;4.43;;
26620;SDS011;14253;44.840;10.444;2022-07-22T15:18:53;7.20;;;4.70;;
26620;SDS011;14253;44.840;10.444;2022-07-22T15:21:20;7.35;;;4.57;;
26620;SDS011;14253;44.840;10.444;2022-07-22T15:23:48;5.75;;;4.38;;
26620;SDS011;14253;44.840;10.444;2022-07-22T15:26:14;7.30;;;4.93;;
26620;SDS011;14253;44.840;10.444;2022-07-22T15:28:40;14.32;;;4.50;;
26620;SDS011;14253;44.840;10.444;2022-07-22T15:31:08;10.35;;;5.22;;
26620;SDS011;14253;44.840;10.444;2022-07-22T15:33:34;7.72;;;4.72;;
26620;SDS011;14253;44.840;10.444;2022-07-22T15:36:01;10.18;;;4.75;;
26620;SDS011;14253;44.840;10.444;2022-07-22T15:38:27;6.45;;;4.80;;
26620;SDS011;14253;44.840;10.444;2022-07-22T15:40:53;13.30;;;4.30;;
26620;SDS011;14253;44.840;10.444;2022-07-22T15:43:20;8.35;;;4.72;;
26620;SDS011;14253;44.840;10.444;2022-07-22T15:45:46;7.20;;;5.07;;
26620;SDS011;14253;44.840;10.444;2022-07-22T15:48:12;10.38;;;5.18;;
26620;SDS011;14253;44.840;10.444;2022-07-22T15:50:39;7.55;;;4.53;;
26620;SDS011;14253;44.840;10.444;2022-07-22T15:53:06;9.85;;;4.63;;
26620;SDS011;14253;44.840;10.444;2022-07-22T15:55:32;10.05;;;5.03;;
26620;SDS011;14253;44.840;10.444;2022-07-22T15:57:58;7.65;;;4.90;;
26620;SDS011;14253;44.840;10.444;2022-07-22T16:00:43;7.45;;;4.95;;
26620;SDS011;14253;44.840;10.444;2022-07-22T16:03:11;8.65;;;5.10;;
26620;SDS011;14253;44.840;10.444;2022-07-22T16:05:37;9.30;;;5.05;;
26620;SDS011;14253;44.840;10.444;2022-07-22T16:08:03;7.72;;;4.93;;
26620;SDS011;14253;44.840;10.444;2022-07-22T16:10:30;8.32;;;4.80;;
26620;SDS011;14253;44.840;10.444;2022-07-22T16:12:56;6.70;;;4.32;;
26620;SDS011;14253;44.840;10.444;2022-07-22T16:15:22;6.65;;;5.13;;
26620;SDS011;14253;44.840;10.444;2022-07-22T16:17:48;7.18;;;4.65;;
26620;SDS011;14253;44.840;10.444;2022-07-22T16:20:14;7.75;;;5.13;;
26620;SDS011;14253;44.840;10.444;2022-07-22T16:22:40;6.47;;;4.32;;
26620;SDS011;14253;44.840;10.444;2022-07-22T16:25:06;5.93;;;4.20;;
26620;SDS011;14253;44.840;10.444;2022-07-22T16:27:32;7.35;;;3.90;;
26620;SDS011;14253;44.840;10.444;2022-07-22T16:29:58;6.88;;;4.25;;
26620;SDS011;14253;44.840;10.444;2022-07-22T16:32:24;10.07;;;4.25;;
26620;SDS011;14253;44.840;10.444;2022-07-22T16:34:51;11.10;;;4.30;;
26620;SDS011;14253;44.840;10.444;2022-07-22T16:37:20;4.65;;;3.75;;
26620;SDS011;14253;44.840;10.444;2022-07-22T16:39:53;7.03;;;4.22;;
26620;SDS011;14253;44.840;10.444;2022-07-22T16:42:47;6.60;;;4.25;;
26620;SDS011;14253;44.840;10.444;2022-07-22T16:45:13;6.32;;;4.40;;
26620;SDS011;14253;44.840;10.444;2022-07-22T16:47:39;7.20;;;4.30;;
26620;SDS011;14253;44.840;10.444;2022-07-22T16:50:06;7.10;;;4.38;;
26620;SDS011;14253;44.840;10.444;2022-07-22T16:52:32;4.72;;;4.30;;
26620;SDS011;14253;44.840;10.444;2022-07-22T16:54:58;6.30;;;4.40;;
26620;SDS011;14253;44.840;10.444;2022-07-22T16:57:24;11.20;;;4.85;;
26620;SDS011;14253;44.840;10.444;2022-07-22T16:59:52;9.82;;;4.55;;
26620;SDS011;14253;44.840;10.444;2022-07-22T17:02:18;5.47;;;4.53;;
26620;SDS011;14253;44.840;10.444;2022-07-22T17:04:45;10.43;;;4.55;;
26620;SDS011;14253;44.840;10.444;2022-07-22T17:07:13;8.20;;;4.90;;
26620;SDS011;14253;44.840;10.444;2022-07-22T17:09:43;5.40;;;4.40;;
26620;SDS011;14253;44.840;10.444;2022-07-22T17:12:15;7.70;;;4.30;;
26620;SDS011;14253;44.840;10.444;2022-07-22T17:14:42;5.82;;;4.68;;
26620;SDS011;14253;44.840;10.444;2022-07-22T17:17:08;6.53;;;4.45;;
26620;SDS011;14253;44.840;10.444;2022-07-22T17:19:35;8.77;;;4.47;;
26620;SDS011;14253;44.840;10.444;2022-07-22T17:22:02;7.55;;;4.03;;
26620;SDS011;14253;44.840;10.444;2022-07-22T17:24:28;6.22;;;4.55;;
26620;SDS011;14253;44.840;10.444;2022-07-22T17:26:54;6.22;;;4.15;;
26620;SDS011;14253;44.840;10.444;2022-07-22T17:29:20;7.70;;;4.18;;